Alfred, Maine
Current Conditions -  °F | °C
As of 9:35 AM on Thursday 23 Oct 2014 (Local Time) from KSFM Reporting Station
Overcast Overcast  
Wind Chill:   Ceiling: 1000
Heat Index:   Visibility: 5mi
Dew Point:   Wind: 24mph
Humidity: 82%   Direction: 20°NNE
Pressure: 29.72"   Gusts: 31mph
Location:  43.48°N, 70.72°W
Report Text: KSFM 231335Z AUTO 02021G27KT 5SM BKN010 OVC017 09/06 A2972 RMK AO1 P0003
Loading
Personal Weather Stations






























Interactive Weather Map New forecast layout! Learn more

10-Day Weather Forecast

Advertisements
Track Severe Weather on mobile